createdAt,value
2023-08-30T00:00:02.446Z,15.98
2023-08-30T00:01:38.471Z,15.97
2023-08-30T00:03:10.399Z,15.91
2023-08-30T00:04:43.212Z,15.88
2023-08-30T00:06:14.978Z,15.82
2023-08-30T00:07:46.772Z,15.80
2023-08-30T00:09:18.787Z,15.78
2023-08-30T00:10:50.646Z,15.83
2023-08-30T00:12:23.067Z,15.87
2023-08-30T00:13:54.887Z,15.86
2023-08-30T00:15:26.743Z,15.90
2023-08-30T00:16:58.506Z,15.89
2023-08-30T00:18:30.431Z,15.91
2023-08-30T00:20:02.375Z,15.89
2023-08-30T00:21:34.175Z,15.92
2023-08-30T00:23:06.177Z,15.97
2023-08-30T00:24:37.998Z,15.98
2023-08-30T00:26:09.831Z,15.99
2023-08-30T00:27:41.622Z,15.94
2023-08-30T00:29:13.444Z,15.92
2023-08-30T00:30:45.491Z,15.95
2023-08-30T00:32:17.310Z,15.92
2023-08-30T00:33:52.650Z,15.92
2023-08-30T00:35:24.430Z,15.92
2023-08-30T00:36:56.253Z,15.86
2023-08-30T00:38:28.479Z,15.87
2023-08-30T00:40:01.286Z,15.89
2023-08-30T00:41:33.203Z,15.92
2023-08-30T00:43:04.973Z,15.88
2023-08-30T00:44:36.785Z,15.90
2023-08-30T00:46:08.562Z,15.93
2023-08-30T00:47:40.351Z,15.90
2023-08-30T00:49:12.159Z,15.86
2023-08-30T00:50:43.957Z,15.86
2023-08-30T00:52:16.970Z,15.88
2023-08-30T00:53:49.312Z,15.91
2023-08-30T00:55:21.137Z,15.88
2023-08-30T00:56:53.707Z,15.90
2023-08-30T00:58:27.878Z,15.92
2023-08-30T00:59:59.685Z,15.91
2023-08-30T01:01:31.439Z,15.91
2023-08-30T01:03:03.296Z,15.89
2023-08-30T01:04:35.123Z,15.88
2023-08-30T01:06:06.924Z,15.83
2023-08-30T01:07:38.706Z,15.86
2023-08-30T01:09:11.028Z,15.86
2023-08-30T01:10:46.128Z,15.82
2023-08-30T01:12:18.906Z,15.82
2023-08-30T01:13:56.564Z,15.81
2023-08-30T01:15:28.292Z,15.85
2023-08-30T01:17:00.072Z,15.87
2023-08-30T01:18:34.275Z,15.90
2023-08-30T01:20:09.573Z,15.93
2023-08-30T01:21:51.874Z,15.94
2023-08-30T01:23:23.730Z,15.96
2023-08-30T01:25:22.534Z,15.97
2023-08-30T01:27:20.567Z,16.01
2023-08-30T01:28:52.769Z,15.98
2023-08-30T01:30:24.532Z,15.92
2023-08-30T01:31:57.005Z,15.86
2023-08-30T01:33:29.860Z,15.85
2023-08-30T01:35:01.854Z,15.89
2023-08-30T01:36:33.662Z,15.89
2023-08-30T01:38:07.469Z,15.88
2023-08-30T01:39:39.787Z,15.89
2023-08-30T01:41:12.920Z,15.91
2023-08-30T01:42:46.009Z,15.95
2023-08-30T01:44:18.150Z,15.97
2023-08-30T01:45:49.975Z,15.92
2023-08-30T01:47:21.765Z,15.89
2023-08-30T01:48:54.807Z,15.92
2023-08-30T01:50:26.602Z,15.92
2023-08-30T01:51:58.384Z,15.87
2023-08-30T01:53:31.274Z,15.89
2023-08-30T01:55:03.825Z,15.83
2023-08-30T01:56:36.508Z,15.85
2023-08-30T01:58:08.824Z,15.83
2023-08-30T01:59:41.000Z,15.80
2023-08-30T02:01:13.390Z,15.72
2023-08-30T02:02:45.317Z,15.66
2023-08-30T02:04:17.165Z,15.59
2023-08-30T02:05:50.054Z,15.61
2023-08-30T02:07:23.609Z,15.59
2023-08-30T02:09:00.337Z,15.64
2023-08-30T02:10:42.536Z,15.72
2023-08-30T02:12:14.937Z,15.75
2023-08-30T02:13:46.683Z,15.70
2023-08-30T02:15:18.990Z,15.74
2023-08-30T02:16:50.758Z,15.82
2023-08-30T02:18:22.561Z,15.80
2023-08-30T02:19:57.969Z,15.84
2023-08-30T02:21:29.974Z,15.80
2023-08-30T02:23:11.692Z,15.79
2023-08-30T02:24:46.270Z,15.82
2023-08-30T02:26:19.644Z,15.86
2023-08-30T02:27:52.777Z,15.86
2023-08-30T02:29:25.232Z,15.86
2023-08-30T02:30:57.025Z,15.87
2023-08-30T02:32:28.913Z,15.90
2023-08-30T02:34:00.718Z,15.91
2023-08-30T02:35:32.511Z,15.91
2023-08-30T02:37:04.312Z,15.95
2023-08-30T02:38:36.046Z,15.96
2023-08-30T02:40:08.129Z,15.96
2023-08-30T02:41:41.549Z,15.94
2023-08-30T02:43:13.446Z,15.93
2023-08-30T02:44:45.224Z,15.90
2023-08-30T02:46:17.021Z,15.91
2023-08-30T02:47:50.581Z,15.91
2023-08-30T02:49:22.380Z,15.92
2023-08-30T02:50:54.142Z,15.93
2023-08-30T02:52:25.917Z,15.80
2023-08-30T02:53:57.735Z,15.74
2023-08-30T02:55:29.519Z,15.73
2023-08-30T02:57:01.398Z,15.74
2023-08-30T02:58:34.548Z,15.76
2023-08-30T03:00:07.426Z,15.78
2023-08-30T03:01:39.468Z,15.81
2023-08-30T03:03:11.349Z,15.84
2023-08-30T03:04:43.230Z,15.85
2023-08-30T03:06:15.893Z,15.81
2023-08-30T03:07:47.803Z,15.76
2023-08-30T03:09:19.658Z,15.70
2023-08-30T03:10:51.483Z,15.72
2023-08-30T03:12:24.116Z,15.71
2023-08-30T03:13:55.974Z,15.74
2023-08-30T03:15:27.876Z,15.74
2023-08-30T03:16:59.676Z,15.76
2023-08-30T03:18:32.037Z,15.81
2023-08-30T03:20:06.734Z,15.84
2023-08-30T03:21:38.895Z,15.85
2023-08-30T03:23:12.798Z,15.82
2023-08-30T03:24:44.570Z,15.77
2023-08-30T03:26:17.643Z,15.72
2023-08-30T03:27:49.395Z,15.73
2023-08-30T03:29:21.461Z,15.73
2023-08-30T03:30:53.285Z,15.77
2023-08-30T03:32:25.156Z,15.79
2023-08-30T03:33:57.166Z,15.76
2023-08-30T03:35:28.922Z,15.74
2023-08-30T03:37:01.156Z,15.74
2023-08-30T03:38:32.940Z,15.70
2023-08-30T03:40:06.164Z,15.62
2023-08-30T03:41:38.049Z,15.63
2023-08-30T03:43:10.403Z,15.67
2023-08-30T03:44:43.716Z,15.67
2023-08-30T03:46:15.600Z,15.72
2023-08-30T03:47:47.476Z,15.74
2023-08-30T03:49:19.242Z,15.78
2023-08-30T03:50:51.298Z,15.76
2023-08-30T03:52:23.086Z,15.77
2023-08-30T03:53:56.031Z,15.75
2023-08-30T03:55:27.813Z,15.70
2023-08-30T03:56:59.637Z,15.65
2023-08-30T03:58:31.398Z,15.63
2023-08-30T04:00:05.315Z,15.58
2023-08-30T04:01:46.463Z,15.59
2023-08-30T04:03:18.489Z,15.59
2023-08-30T04:04:51.556Z,15.58
2023-08-30T04:06:24.363Z,15.58
2023-08-30T04:07:56.142Z,15.57
2023-08-30T04:09:27.950Z,15.57
2023-08-30T04:10:59.739Z,15.60
2023-08-30T04:12:31.567Z,15.59
2023-08-30T04:14:03.675Z,15.58
2023-08-30T04:15:36.334Z,15.60
2023-08-30T04:17:08.088Z,15.60
2023-08-30T04:18:40.104Z,15.56
2023-08-30T04:20:12.024Z,15.54
2023-08-30T04:21:43.856Z,15.45
2023-08-30T04:23:15.776Z,15.45
2023-08-30T04:24:49.977Z,15.46
2023-08-30T04:26:21.748Z,15.49
2023-08-30T04:27:53.559Z,15.52
2023-08-30T04:29:26.196Z,15.49
2023-08-30T04:30:58.223Z,15.48
2023-08-30T04:32:30.117Z,15.51
2023-08-30T04:34:01.964Z,15.42
2023-08-30T04:35:33.800Z,15.44
2023-08-30T04:37:05.650Z,15.43
2023-08-30T04:38:45.381Z,15.43
2023-08-30T04:40:22.719Z,15.46
2023-08-30T04:41:54.956Z,15.44
2023-08-30T04:43:26.865Z,15.41
2023-08-30T04:45:01.992Z,15.44
2023-08-30T04:46:33.945Z,15.44
2023-08-30T04:48:06.268Z,15.41
2023-08-30T04:49:38.332Z,15.44
2023-08-30T04:51:10.152Z,15.42
2023-08-30T04:52:42.088Z,15.42
2023-08-30T04:54:15.461Z,15.38
2023-08-30T04:55:47.234Z,15.31
2023-08-30T04:57:19.571Z,15.32
2023-08-30T04:58:51.810Z,15.28
2023-08-30T05:00:24.279Z,15.27
2023-08-30T05:01:57.829Z,15.28
2023-08-30T05:03:33.318Z,15.25
2023-08-30T05:05:05.666Z,15.27
2023-08-30T05:06:38.292Z,15.24
2023-08-30T05:08:10.193Z,15.21
2023-08-30T05:09:42.496Z,15.23
2023-08-30T05:11:14.992Z,15.20
2023-08-30T05:12:51.039Z,15.19
2023-08-30T05:14:23.023Z,15.21
2023-08-30T05:15:54.825Z,15.20
2023-08-30T05:17:27.142Z,15.22
2023-08-30T05:18:59.175Z,15.23
2023-08-30T05:20:31.338Z,15.26
2023-08-30T05:22:03.146Z,15.28
2023-08-30T05:23:34.950Z,15.27
2023-08-30T05:25:06.895Z,15.26
2023-08-30T05:26:38.699Z,15.28
2023-08-30T05:28:10.673Z,15.27
2023-08-30T05:29:42.702Z,15.32
2023-08-30T05:31:14.958Z,15.36
2023-08-30T05:33:24.801Z,15.39
2023-08-30T05:35:09.351Z,15.40
2023-08-30T05:37:00.418Z,15.38
2023-08-30T05:38:58.621Z,15.38
2023-08-30T05:40:46.070Z,15.43
2023-08-30T05:42:17.935Z,15.45
2023-08-30T05:43:49.701Z,15.45
2023-08-30T05:45:21.526Z,15.43
2023-08-30T05:46:53.343Z,15.41
2023-08-30T05:48:25.160Z,15.41
2023-08-30T05:49:58.144Z,15.44
2023-08-30T05:51:31.173Z,15.42
2023-08-30T05:53:04.278Z,15.44
2023-08-30T05:54:36.167Z,15.43
2023-08-30T05:56:08.064Z,15.48
2023-08-30T05:57:39.993Z,15.46
2023-08-30T05:59:12.821Z,15.51
2023-08-30T06:00:44.685Z,15.56
2023-08-30T06:02:16.592Z,15.58
2023-08-30T06:03:48.448Z,15.63
2023-08-30T06:05:20.237Z,15.64
2023-08-30T06:06:51.996Z,15.64
2023-08-30T06:08:23.835Z,15.63
2023-08-30T06:09:58.796Z,15.64
2023-08-30T06:11:31.140Z,15.66
2023-08-30T06:13:03.831Z,15.69
2023-08-30T06:14:35.653Z,15.73
2023-08-30T06:16:07.469Z,15.76
2023-08-30T06:17:39.342Z,15.78
2023-08-30T06:19:14.166Z,15.80
2023-08-30T06:20:46.066Z,15.85
2023-08-30T06:22:17.853Z,15.84
2023-08-30T06:23:49.621Z,15.87
2023-08-30T06:25:21.500Z,15.92
2023-08-30T06:26:54.567Z,16.00
2023-08-30T06:28:26.394Z,16.08
2023-08-30T06:29:58.160Z,16.10
2023-08-30T06:31:30.617Z,16.13
2023-08-30T06:33:02.597Z,16.14
2023-08-30T06:34:34.470Z,16.13
2023-08-30T06:36:06.544Z,16.16
2023-08-30T06:37:38.316Z,16.17
2023-08-30T06:39:10.122Z,16.20
2023-08-30T06:40:45.328Z,16.19
2023-08-30T06:42:17.564Z,16.25
2023-08-30T06:43:50.588Z,16.24
2023-08-30T06:45:22.528Z,16.25
2023-08-30T06:46:54.314Z,16.25
2023-08-30T06:48:26.331Z,16.25
2023-08-30T06:49:58.412Z,16.26
2023-08-30T06:51:30.213Z,16.30
2023-08-30T06:53:02.916Z,16.34
2023-08-30T06:54:35.749Z,16.35
2023-08-30T06:56:07.565Z,16.41
2023-08-30T06:57:39.368Z,16.39
2023-08-30T06:59:11.269Z,16.39
2023-08-30T07:00:43.178Z,16.39
2023-08-30T07:02:15.135Z,16.38
2023-08-30T07:03:46.985Z,16.44
2023-08-30T07:05:18.820Z,16.47
2023-08-30T07:06:50.610Z,16.47
2023-08-30T07:08:22.583Z,16.52
2023-08-30T07:09:54.441Z,16.53
2023-08-30T07:11:34.132Z,16.52
2023-08-30T07:13:11.618Z,16.58
2023-08-30T07:14:43.466Z,16.58
2023-08-30T07:16:15.241Z,16.68
2023-08-30T07:17:53.855Z,16.71
2023-08-30T07:19:26.519Z,16.77
2023-08-30T07:20:58.316Z,16.85
2023-08-30T07:22:30.203Z,16.90
2023-08-30T07:24:02.016Z,16.91
2023-08-30T07:25:38.115Z,16.92
2023-08-30T07:27:09.909Z,16.87
2023-08-30T07:28:41.762Z,16.95
2023-08-30T07:30:13.708Z,16.94
2023-08-30T07:31:45.502Z,16.96
2023-08-30T07:33:17.361Z,17.05
2023-08-30T07:34:49.161Z,17.12
2023-08-30T07:36:23.988Z,17.17
2023-08-30T07:37:58.073Z,17.20
2023-08-30T07:39:29.855Z,17.23
2023-08-30T07:41:01.817Z,17.24
2023-08-30T07:42:33.598Z,17.30
2023-08-30T07:44:05.601Z,17.27
2023-08-30T07:45:37.375Z,17.27
2023-08-30T07:47:09.230Z,17.25
2023-08-30T07:48:41.024Z,17.22
2023-08-30T07:50:13.480Z,17.24
2023-08-30T07:51:45.859Z,17.22
2023-08-30T07:53:17.711Z,17.02
2023-08-30T07:54:49.506Z,16.92
2023-08-30T07:56:21.303Z,16.81
2023-08-30T07:57:53.116Z,16.78
2023-08-30T07:59:24.936Z,16.68
2023-08-30T08:00:56.699Z,16.66
2023-08-30T08:02:28.539Z,16.59
2023-08-30T08:04:07.245Z,16.60
2023-08-30T08:05:39.788Z,16.55
2023-08-30T08:07:11.625Z,16.54
2023-08-30T08:08:43.437Z,16.54
2023-08-30T08:10:15.273Z,16.46
2023-08-30T08:11:47.122Z,16.40
2023-08-30T08:13:19.207Z,16.37
2023-08-30T08:14:51.068Z,16.37
2023-08-30T08:16:22.940Z,16.33
2023-08-30T08:17:54.829Z,16.27
2023-08-30T08:19:26.741Z,16.21
2023-08-30T08:20:58.601Z,16.19
2023-08-30T08:22:30.417Z,16.17
2023-08-30T08:24:02.419Z,15.97
2023-08-30T08:25:34.255Z,15.93
2023-08-30T08:27:07.417Z,15.88
2023-08-30T08:28:39.612Z,15.88
2023-08-30T08:30:12.214Z,15.83
2023-08-30T08:31:43.997Z,15.82
2023-08-30T08:33:15.844Z,15.85
2023-08-30T08:34:47.586Z,15.80
2023-08-30T08:36:19.423Z,15.85
2023-08-30T08:37:52.161Z,15.85
2023-08-30T08:39:23.995Z,15.88
2023-08-30T08:41:02.126Z,15.83
2023-08-30T08:42:33.951Z,15.85
2023-08-30T08:44:06.443Z,15.87
2023-08-30T08:45:38.242Z,15.89
2023-08-30T08:47:10.030Z,15.90
2023-08-30T08:48:42.393Z,15.99
2023-08-30T08:50:14.239Z,15.92
2023-08-30T08:51:46.538Z,15.93
2023-08-30T08:53:18.381Z,15.91
2023-08-30T08:54:50.259Z,15.85
2023-08-30T08:56:22.029Z,15.91
2023-08-30T08:57:55.065Z,15.91
2023-08-30T08:59:26.831Z,15.96
2023-08-30T09:00:58.677Z,15.87
2023-08-30T09:02:30.604Z,15.82
2023-08-30T09:04:20.794Z,15.78
2023-08-30T09:05:52.576Z,15.70
2023-08-30T09:07:25.837Z,15.72
2023-08-30T09:08:57.636Z,15.79
2023-08-30T09:10:29.397Z,15.75
2023-08-30T09:13:32.352Z,15.68
2023-08-30T09:15:05.601Z,15.68
2023-08-30T09:16:37.405Z,15.69
2023-08-30T09:18:18.809Z,15.66
2023-08-30T09:19:50.642Z,15.67
2023-08-30T09:21:22.406Z,15.71
2023-08-30T09:22:54.173Z,15.76
2023-08-30T09:24:26.156Z,15.76
2023-08-30T09:25:58.010Z,15.80
2023-08-30T09:27:33.259Z,15.81
2023-08-30T09:29:05.446Z,15.75
2023-08-30T09:30:37.235Z,15.73
2023-08-30T09:32:09.169Z,15.81
2023-08-30T09:33:40.942Z,15.84
2023-08-30T09:35:12.758Z,15.84
2023-08-30T09:36:44.859Z,15.83
2023-08-30T09:38:19.860Z,15.86
2023-08-30T09:39:52.158Z,15.92
2023-08-30T09:41:23.974Z,15.95
2023-08-30T09:43:10.787Z,15.96
2023-08-30T09:44:44.364Z,15.98
2023-08-30T09:46:16.273Z,16.01
2023-08-30T09:47:48.730Z,16.01
2023-08-30T09:49:26.908Z,16.10
2023-08-30T09:50:59.553Z,16.10
2023-08-30T09:52:31.376Z,16.03
2023-08-30T09:54:06.529Z,16.11
2023-08-30T09:55:39.467Z,16.04
2023-08-30T09:57:11.667Z,15.99
2023-08-30T09:58:43.809Z,15.92
2023-08-30T10:00:15.789Z,15.76
2023-08-30T10:01:48.311Z,15.70
2023-08-30T10:03:30.670Z,15.69
2023-08-30T10:05:03.957Z,15.60
2023-08-30T10:06:36.313Z,15.58
2023-08-30T10:08:08.400Z,15.46
2023-08-30T10:09:52.119Z,15.40
2023-08-30T10:11:27.222Z,15.34
2023-08-30T10:13:09.596Z,15.43
2023-08-30T10:14:42.439Z,15.43
2023-08-30T10:16:21.991Z,15.42
2023-08-30T10:17:54.054Z,15.42
2023-08-30T10:19:26.241Z,15.42
2023-08-30T10:20:58.112Z,15.49
2023-08-30T10:22:29.902Z,15.53
2023-08-30T10:24:05.380Z,15.48
2023-08-30T10:25:41.140Z,15.49
2023-08-30T10:27:12.939Z,15.46
2023-08-30T10:28:44.740Z,15.49
2023-08-30T10:30:17.079Z,15.55
2023-08-30T10:31:50.543Z,15.58
2023-08-30T10:33:27.341Z,15.61
2023-08-30T10:35:02.106Z,15.62
2023-08-30T10:36:33.909Z,15.65
2023-08-30T10:38:05.803Z,15.61
2023-08-30T10:39:38.446Z,15.60
2023-08-30T10:41:10.769Z,15.69
2023-08-30T10:42:42.687Z,15.76
2023-08-30T10:44:15.196Z,15.80
2023-08-30T10:45:47.003Z,15.87
2023-08-30T10:47:27.419Z,15.84
2023-08-30T10:49:17.743Z,15.95
2023-08-30T10:50:49.539Z,15.99
2023-08-30T10:52:21.400Z,16.05
2023-08-30T10:53:56.794Z,16.06
2023-08-30T10:55:28.672Z,16.09
2023-08-30T10:57:02.661Z,16.16
2023-08-30T10:58:42.232Z,16.16
2023-08-30T11:00:20.743Z,16.17
2023-08-30T11:01:53.384Z,16.30
2023-08-30T11:03:25.619Z,16.36
2023-08-30T11:04:58.754Z,16.32
2023-08-30T11:06:30.668Z,16.34
2023-08-30T11:08:02.447Z,16.43
2023-08-30T11:09:34.463Z,16.41
2023-08-30T11:11:06.675Z,16.42
2023-08-30T11:12:38.564Z,16.44
2023-08-30T11:14:10.660Z,16.42
2023-08-30T11:15:42.518Z,16.52
2023-08-30T11:17:14.334Z,16.52
2023-08-30T11:18:46.139Z,16.56
2023-08-30T11:20:19.708Z,16.50
2023-08-30T11:21:51.470Z,16.51
2023-08-30T11:23:23.313Z,16.53
2023-08-30T11:24:55.089Z,16.58
2023-08-30T11:26:27.151Z,16.68
2023-08-30T11:28:05.241Z,16.70
2023-08-30T11:29:37.277Z,16.56
2023-08-30T11:31:09.121Z,16.62
2023-08-30T11:32:41.491Z,16.70
2023-08-30T11:34:13.429Z,16.63
2023-08-30T11:35:45.264Z,16.64
2023-08-30T11:37:17.120Z,16.68
2023-08-30T11:38:49.083Z,16.67
2023-08-30T11:40:20.857Z,16.67
2023-08-30T11:41:53.870Z,16.61
2023-08-30T11:43:26.523Z,16.60
2023-08-30T11:44:59.276Z,16.57
2023-08-30T11:46:31.127Z,16.60
2023-08-30T11:48:03.181Z,16.61
2023-08-30T11:49:35.513Z,16.56
2023-08-30T11:51:07.484Z,16.52
2023-08-30T11:52:39.969Z,16.55
2023-08-30T11:54:11.733Z,16.56
2023-08-30T11:55:43.598Z,16.56
2023-08-30T11:57:15.411Z,16.58
2023-08-30T11:58:47.301Z,16.57
2023-08-30T12:00:20.112Z,16.60
2023-08-30T12:01:54.122Z,16.63
2023-08-30T12:03:28.105Z,16.62
2023-08-30T12:05:01.448Z,16.70
2023-08-30T12:06:33.284Z,16.78
2023-08-30T12:08:05.280Z,16.85
2023-08-30T12:09:37.889Z,16.95
2023-08-30T12:11:22.125Z,17.08
2023-08-30T12:12:53.976Z,17.02
2023-08-30T12:14:33.982Z,17.10
2023-08-30T12:16:06.335Z,17.20
2023-08-30T12:17:38.586Z,17.16
2023-08-30T12:19:11.521Z,17.09
2023-08-30T12:22:56.046Z,17.04
2023-08-30T12:24:27.839Z,17.06
2023-08-30T12:26:02.614Z,16.96
2023-08-30T12:27:34.649Z,16.92
2023-08-30T12:29:07.537Z,16.85
2023-08-30T12:30:39.546Z,16.88
2023-08-30T12:32:11.384Z,16.90
2023-08-30T12:33:43.254Z,16.87
2023-08-30T12:35:15.305Z,16.87
2023-08-30T12:36:47.715Z,16.82
2023-08-30T12:38:19.526Z,16.77
2023-08-30T12:39:51.353Z,16.76
2023-08-30T12:41:24.596Z,16.73
2023-08-30T12:42:56.411Z,16.73
2023-08-30T12:44:43.908Z,16.69
2023-08-30T12:46:15.796Z,16.74
2023-08-30T12:47:47.646Z,16.71
2023-08-30T12:49:19.457Z,16.76
2023-08-30T12:50:51.405Z,16.82
2023-08-30T12:52:23.423Z,16.88
2023-08-30T12:53:55.224Z,16.95
2023-08-30T12:55:27.019Z,17.00
2023-08-30T12:56:58.878Z,16.97
2023-08-30T12:58:30.636Z,16.95
2023-08-30T13:00:02.458Z,16.99
2023-08-30T13:01:34.330Z,17.04
2023-08-30T13:03:06.271Z,17.06
2023-08-30T13:04:38.921Z,17.10
2023-08-30T13:06:10.773Z,17.10
2023-08-30T13:07:43.422Z,17.11
2023-08-30T13:09:15.213Z,17.09
2023-08-30T13:10:47.005Z,17.09
2023-08-30T13:12:18.839Z,17.08
2023-08-30T13:13:50.747Z,17.14
2023-08-30T13:15:22.607Z,17.17
2023-08-30T13:16:54.495Z,17.21
2023-08-30T13:18:26.352Z,17.20
2023-08-30T13:19:59.368Z,17.20
2023-08-30T13:21:40.626Z,17.24
2023-08-30T13:23:13.218Z,17.19
2023-08-30T13:24:48.803Z,17.17
2023-08-30T13:26:20.614Z,17.18
2023-08-30T13:27:53.512Z,17.20
2023-08-30T13:29:25.304Z,17.19
2023-08-30T13:30:57.174Z,17.14
2023-08-30T13:32:29.060Z,17.17
2023-08-30T13:34:00.967Z,17.11
2023-08-30T13:35:32.786Z,17.17
2023-08-30T13:37:05.087Z,17.14
2023-08-30T13:38:36.893Z,17.05
2023-08-30T13:40:09.014Z,17.07
2023-08-30T13:41:40.809Z,17.05
2023-08-30T13:43:12.860Z,17.09
2023-08-30T13:44:45.340Z,16.99
2023-08-30T13:46:17.128Z,17.02
2023-08-30T13:47:48.935Z,17.02
2023-08-30T13:49:21.695Z,17.01
2023-08-30T13:50:53.569Z,16.99
2023-08-30T13:52:25.416Z,16.96
2023-08-30T13:53:57.511Z,16.98
2023-08-30T13:55:29.491Z,17.01
2023-08-30T13:57:01.316Z,17.01
2023-08-30T13:58:33.110Z,16.96
2023-08-30T14:00:11.058Z,16.91
2023-08-30T14:01:43.001Z,16.95
2023-08-30T14:03:16.605Z,17.00
2023-08-30T14:04:48.516Z,17.02
2023-08-30T14:06:20.349Z,17.06
2023-08-30T14:07:52.678Z,17.15
2023-08-30T14:10:04.693Z,17.15
2023-08-30T14:11:39.200Z,17.19
2023-08-30T14:13:11.337Z,17.26
2023-08-30T14:14:43.480Z,17.28
2023-08-30T14:16:15.347Z,17.30
2023-08-30T14:17:47.281Z,17.32
2023-08-30T14:19:19.843Z,17.39
2023-08-30T14:20:51.685Z,17.33
2023-08-30T14:22:23.819Z,17.37
2023-08-30T14:23:55.675Z,17.36
2023-08-30T14:25:27.601Z,17.36
2023-08-30T14:26:59.621Z,17.37
2023-08-30T14:28:31.409Z,17.46
2023-08-30T14:30:03.391Z,17.59
2023-08-30T14:31:35.323Z,17.56
2023-08-30T14:33:07.208Z,17.60
2023-08-30T14:34:39.058Z,17.74
2023-08-30T14:36:11.901Z,17.87
2023-08-30T14:37:43.845Z,18.00
2023-08-30T14:39:15.822Z,18.11
2023-08-30T14:41:00.557Z,18.24
2023-08-30T14:42:33.449Z,18.35
2023-08-30T14:44:05.433Z,18.33
2023-08-30T14:45:37.196Z,18.24
2023-08-30T14:47:09.135Z,18.24
2023-08-30T14:48:41.177Z,18.27
2023-08-30T14:50:23.723Z,18.29
2023-08-30T14:51:55.520Z,18.38
2023-08-30T14:53:27.785Z,18.45
2023-08-30T14:55:00.465Z,18.52
2023-08-30T14:56:32.287Z,18.50
2023-08-30T14:58:04.084Z,18.45
2023-08-30T14:59:36.016Z,18.43
2023-08-30T15:01:07.845Z,18.40
2023-08-30T15:02:39.615Z,18.39
2023-08-30T15:04:11.410Z,18.33
2023-08-30T15:05:43.526Z,18.24
2023-08-30T15:07:15.360Z,18.25
2023-08-30T15:08:47.137Z,18.22
2023-08-30T15:10:19.050Z,18.24
2023-08-30T15:11:50.829Z,18.26
2023-08-30T15:13:22.701Z,18.36
2023-08-30T15:14:55.264Z,18.50
2023-08-30T15:16:27.083Z,18.59
2023-08-30T15:17:59.019Z,18.69
2023-08-30T15:19:30.949Z,18.81
2023-08-30T15:21:03.075Z,18.94
2023-08-30T15:22:35.191Z,19.05
2023-08-30T15:24:07.191Z,19.07
2023-08-30T15:25:40.663Z,19.16
2023-08-30T15:27:12.982Z,19.26
2023-08-30T15:28:47.698Z,19.34
2023-08-30T15:30:19.907Z,19.44
2023-08-30T15:31:54.376Z,19.45
2023-08-30T15:33:26.392Z,19.44
2023-08-30T15:34:58.264Z,19.46
2023-08-30T15:36:30.949Z,19.39
2023-08-30T15:38:02.775Z,19.33
2023-08-30T15:39:34.552Z,19.28
2023-08-30T15:41:12.652Z,19.24
2023-08-30T15:42:44.479Z,19.13
2023-08-30T15:44:16.637Z,19.10
2023-08-30T15:45:48.730Z,19.08
2023-08-30T15:47:20.542Z,19.11
2023-08-30T15:48:52.312Z,19.13
2023-08-30T15:50:24.156Z,19.17
2023-08-30T15:51:56.002Z,19.24
2023-08-30T15:53:27.941Z,19.32
2023-08-30T15:54:59.851Z,19.38
2023-08-30T15:56:31.648Z,19.32
2023-08-30T15:58:03.558Z,19.21
2023-08-30T15:59:35.415Z,19.13
2023-08-30T16:01:07.302Z,19.10
2023-08-30T16:02:39.296Z,19.16
2023-08-30T16:04:11.354Z,19.15
2023-08-30T16:05:43.754Z,19.20
2023-08-30T16:07:15.623Z,19.31
2023-08-30T16:08:47.510Z,19.41
2023-08-30T16:10:19.420Z,19.48
2023-08-30T16:11:51.349Z,19.49
2023-08-30T16:13:23.244Z,19.43
2023-08-30T16:14:55.067Z,19.31
2023-08-30T16:16:26.850Z,19.29
2023-08-30T16:17:58.730Z,19.29
2023-08-30T16:19:31.583Z,19.23
2023-08-30T16:21:03.829Z,19.20
2023-08-30T16:22:35.798Z,19.23
2023-08-30T16:24:07.918Z,19.14
2023-08-30T16:25:39.680Z,19.16
2023-08-30T16:27:11.640Z,19.14
2023-08-30T16:28:43.574Z,19.16
2023-08-30T16:30:15.486Z,19.13
2023-08-30T16:31:47.395Z,19.04
2023-08-30T16:33:20.590Z,19.08
2023-08-30T16:34:52.484Z,19.07
2023-08-30T16:36:24.316Z,19.07
2023-08-30T16:37:56.175Z,19.07
2023-08-30T16:39:28.167Z,19.05
2023-08-30T16:41:04.975Z,19.10
2023-08-30T16:42:36.896Z,19.11
2023-08-30T16:44:08.706Z,19.03
2023-08-30T16:45:40.566Z,19.01
2023-08-30T16:47:12.335Z,19.05
2023-08-30T16:48:44.176Z,19.08
2023-08-30T16:50:17.797Z,19.13
2023-08-30T16:51:49.732Z,19.11
2023-08-30T16:53:21.622Z,19.16
2023-08-30T16:54:53.374Z,19.20
2023-08-30T16:56:25.305Z,19.06
2023-08-30T16:57:58.013Z,19.05
2023-08-30T16:59:30.052Z,18.95
2023-08-30T17:01:02.328Z,18.85
2023-08-30T17:02:35.875Z,18.76
2023-08-30T17:04:07.815Z,18.71
2023-08-30T17:05:41.049Z,18.61
2023-08-30T17:07:12.928Z,18.57
2023-08-30T17:08:44.720Z,18.59
2023-08-30T17:10:16.731Z,18.49
2023-08-30T17:11:48.489Z,18.44
2023-08-30T17:13:20.303Z,18.37
2023-08-30T17:14:52.210Z,18.29
2023-08-30T17:16:24.768Z,18.20
2023-08-30T17:17:56.791Z,18.19
2023-08-30T17:19:28.826Z,18.13
2023-08-30T17:21:00.683Z,18.10
2023-08-30T17:22:32.941Z,18.05
2023-08-30T17:24:04.916Z,18.09
2023-08-30T17:25:36.766Z,18.11
2023-08-30T17:27:10.318Z,18.12
2023-08-30T17:28:42.487Z,18.11
2023-08-30T17:30:15.046Z,18.09
2023-08-30T17:31:47.227Z,18.09
2023-08-30T17:33:19.037Z,18.08
2023-08-30T17:34:50.865Z,18.00
2023-08-30T17:36:22.696Z,17.99
2023-08-30T17:37:54.539Z,17.95
2023-08-30T17:39:27.076Z,17.94
2023-08-30T17:40:59.158Z,17.89
2023-08-30T17:42:31.125Z,17.90
2023-08-30T17:44:03.241Z,17.90
2023-08-30T17:45:35.195Z,17.88
2023-08-30T17:47:07.113Z,17.84
2023-08-30T17:48:40.603Z,17.78
2023-08-30T17:50:12.590Z,17.76
2023-08-30T17:51:44.567Z,17.80
2023-08-30T17:53:18.160Z,17.79
2023-08-30T17:57:06.604Z,17.67
2023-08-30T17:58:38.478Z,17.64
2023-08-30T18:00:15.600Z,17.63
2023-08-30T18:01:48.515Z,17.57
2023-08-30T18:03:21.353Z,17.55
2023-08-30T18:04:53.405Z,17.54
2023-08-30T18:06:25.244Z,17.52
2023-08-30T18:07:58.392Z,17.49
2023-08-30T18:09:30.271Z,17.49
2023-08-30T18:11:02.108Z,17.49
2023-08-30T18:12:34.090Z,17.48
2023-08-30T18:14:05.959Z,17.49
2023-08-30T18:15:38.328Z,17.46
2023-08-30T18:17:10.116Z,17.39
2023-08-30T18:18:42.255Z,17.33
2023-08-30T18:20:15.816Z,17.33
2023-08-30T18:21:47.628Z,17.31
2023-08-30T18:23:19.445Z,17.30
2023-08-30T18:24:51.688Z,17.32
2023-08-30T18:26:24.633Z,17.32
2023-08-30T18:27:57.173Z,17.29
2023-08-30T18:29:29.630Z,17.25
2023-08-30T18:31:01.516Z,17.20
2023-08-30T18:32:33.750Z,17.20
2023-08-30T18:34:06.781Z,17.20
2023-08-30T18:35:38.551Z,17.16
2023-08-30T18:37:10.409Z,17.15
2023-08-30T18:38:42.238Z,17.14
2023-08-30T18:40:24.563Z,17.10
2023-08-30T18:41:56.368Z,17.12
2023-08-30T18:43:28.229Z,17.00
2023-08-30T18:45:00.242Z,16.88
2023-08-30T18:46:32.271Z,16.82
2023-08-30T18:48:04.293Z,16.82
2023-08-30T18:49:36.206Z,16.82
2023-08-30T18:51:08.126Z,16.81
2023-08-30T18:52:40.391Z,16.80
2023-08-30T18:54:12.411Z,16.76
2023-08-30T18:55:44.293Z,16.74
2023-08-30T18:57:16.136Z,16.69
2023-08-30T18:58:48.081Z,16.67
2023-08-30T19:00:19.922Z,16.67
2023-08-30T19:01:51.859Z,16.67
2023-08-30T19:03:23.685Z,16.66
2023-08-30T19:04:55.550Z,16.65
2023-08-30T19:06:28.074Z,16.60
2023-08-30T19:08:00.034Z,16.58
2023-08-30T19:09:32.664Z,16.55
2023-08-30T19:11:05.306Z,16.54
2023-08-30T19:12:37.068Z,16.47
2023-08-30T19:14:08.912Z,16.47
2023-08-30T19:15:41.154Z,16.44
2023-08-30T19:17:13.114Z,16.40
2023-08-30T19:18:45.116Z,16.35
2023-08-30T19:20:26.181Z,16.22
2023-08-30T19:21:58.213Z,16.18
2023-08-30T19:23:30.324Z,16.18
2023-08-30T19:25:02.348Z,15.95
2023-08-30T19:26:34.168Z,15.92
2023-08-30T19:28:06.156Z,15.90
2023-08-30T19:29:40.774Z,15.86
2023-08-30T19:31:12.648Z,15.80
2023-08-30T19:32:45.585Z,15.75
2023-08-30T19:34:17.475Z,15.69
2023-08-30T19:35:49.283Z,15.66
2023-08-30T19:37:26.000Z,15.63
2023-08-30T19:38:57.918Z,15.60
2023-08-30T19:40:29.778Z,15.58
2023-08-30T19:42:01.616Z,15.53
2023-08-30T19:43:33.484Z,15.51
2023-08-30T19:45:05.655Z,15.47
2023-08-30T19:46:37.513Z,15.47
2023-08-30T19:48:11.477Z,15.46
2023-08-30T19:49:43.363Z,15.45
2023-08-30T19:51:15.198Z,15.39
2023-08-30T19:52:50.027Z,15.39
2023-08-30T19:54:21.881Z,15.42
2023-08-30T19:55:53.745Z,15.42
2023-08-30T19:57:25.525Z,15.44
2023-08-30T19:58:57.285Z,15.39
2023-08-30T20:00:29.329Z,15.36
2023-08-30T20:02:01.609Z,15.30